Latest Weather Observations for Scone Airport

IDN60801

Issued at 5:05 pm EDT Saturday 25 October 2014 (issued every 30 minutes, with the page automatically refreshed every 10 minutes)

About weather observations | Map of weather stations | Latest weather observations for NSW | Other Formats
Station Details ID: 061363 Name: SCONE AIRPORT AWS Lat: -32.03 Lon: 150.83 Height: 221.4 m
Data from the previous 72 hours. | See also: Recent months at Scone Airport
Date/Time
EDT
Temp
°C
App
Temp
°C
Dew
Point
Rel
Hum
%
Delta-T
°C
Wind Press
QNH
hPa
Press
MSL
hPa
Rain
since 9 am
mm
Dir
 
Spd
km/h
Gust
km/h
Spd
kts
Gust
kts
25/05:00pm 29.8 25.6 8.2 26 12.0 ESE 20 28 11 15 1012.2 1011.7 0.0
25/04:46pm 30.5 24.3 7.7 24 12.6 ESE 30 35 16 19 1012.3 1011.8 0.0
25/04:30pm 31.9 30.5 12.2 30 11.7 ESE 11 15 6 8 1012.0 1011.5 0.0
25/04:00pm 34.1 30.3 1.8 13 16.5 NE 11 15 6 8 1011.6 1011.2 0.0
25/03:30pm 34.5 31.7 3.1 14 16.4 N 7 15 4 8 1012.4 1011.9 0.0
25/03:00pm 34.3 30.1 1.9 13 16.6 ESE 13 20 7 11 1012.5 1012.0 0.0
25/02:30pm 35.2 31.6 0.3 11 17.5 S 9 20 5 11 1013.1 1012.6 0.0
25/02:00pm 35.5 31.7 1.8 12 17.3 SE 11 19 6 10 1013.6 1013.1 0.0
25/01:30pm 34.6 31.8 2.2 13 16.7 E 6 19 3 10 1014.2 1013.7 0.0
25/01:00pm 34.7 31.5 3.3 14 16.5 ENE 9 17 5 9 1014.5 1014.0 0.0
25/12:30pm 33.7 30.2 1.5 13 16.3 SE 9 17 5 9 1014.9 1014.4 0.0
25/12:00pm 32.5 28.3 1.6 14 15.6 SE 13 19 7 10 1015.7 1015.3 0.0
25/11:30am 32.7 28.7 0.7 13 15.9 ESE 11 22 6 12 1016.2 1015.8 0.0
25/11:00am 33.1 28.2 2.0 14 15.8 SSE 17 24 9 13 1016.4 1016.0 0.0
25/10:30am 31.4 28.1 2.6 16 14.7 ENE 9 17 5 9 1016.7 1016.2 0.0
25/10:00am 30.5 26.3 1.9 16 14.3 SSW 13 17 7 9 1016.9 1016.4 0.0
25/09:30am 29.9 26.3 3.0 18 13.7 NW 11 17 6 9 1016.5 1016.1 0.0
25/09:00am 29.5 25.0 4.2 20 13.1 W 17 24 9 13 1016.5 1016.1 0.2
25/08:30am 28.6 26.1 6.7 25 11.7 WNW 9 17 5 9 1016.4 1016.0 0.2
25/08:00am 25.9 25.2 8.4 33 9.5 N 2 9 1 5 1016.2 1015.8 0.2
25/07:30am 21.8 21.0 11.2 51 5.9 ENE 6 11 3 6 1016.0 1015.6 0.2
25/07:00am 18.1 16.8 11.4 65 3.7 N 9 15 5 8 1015.6 1015.2 0.2
25/06:30am 15.6 15.6 11.0 74 2.5 W 2 7 1 4 1015.2 1014.8 0.2
25/06:00am 15.5 15.6 10.3 71 2.8 ENE 0 0 0 0 1014.6 1014.1 0.2
25/05:30am 14.9 14.3 11.7 81 1.7 NNE 6 11 3 6 1014.2 1013.7 0.2
25/05:00am 15.5 16.3 12.4 82 1.7 CALM 0 0 0 0 1014.0 1013.5 0.2
25/04:30am 16.1 15.9 11.7 75 2.4 ENE 4 7 2 4 1013.7 1013.2 0.2
25/04:00am 16.8 16.1 11.5 71 2.9 SSE 6 7 3 4 1013.6 1013.1 0.2
25/03:30am 17.6 17.2 12.3 71 3.0 NW 6 9 3 5 1013.3 1012.8 0.2
25/03:00am 17.3 18.1 12.6 74 2.6 ESE 0 6 0 3 1013.2 1012.7 0.2
25/02:30am 18.1 19.4 14.0 77 2.4 CALM 0 0 0 0 1013.2 1012.7 0.2
25/02:00am 19.0 20.1 13.6 71 3.1 CALM 0 4 0 2 1013.2 1012.7 0.2
25/01:30am 21.1 19.9 12.8 59 4.8 NNW 11 15 6 8 1013.4 1012.9 0.2
25/01:00am 21.3 20.4 13.7 62 4.4 NNW 11 15 6 8 1013.7 1013.2 0.2
25/12:30am 21.3 20.5 14.0 63 4.3 NNW 11 13 6 7 1014.1 1013.6 0.2
25/12:00am 21.8 19.4 13.7 60 4.7 WNW 19 22 10 12 1014.3 1013.8 0.2
 
Date/Time
EDT
Temp
°C
App
Temp
°C
Dew
Point
Rel
Hum
%
Delta-T
°C
Wind Press
QNH
hPa
Press
MSL
hPa
Rain
since 9 am
mm
Dir
 
Spd
km/h
Gust
km/h
Spd
kts
Gust
kts
24/11:30pm 25.5 23.6 11.7 42 7.9 N 13 17 7 9 1014.7 1014.2 0.2
24/11:00pm 26.3 22.4 10.9 38 8.8 WSW 22 30 12 16 1015.5 1015.1 0.2
24/10:30pm 27.0 25.5 8.4 31 10.2 NE 6 11 3 6 1014.0 1013.5 0.2
24/10:00pm 27.4 24.4 7.8 29 10.6 WSW 13 19 7 10 1014.1 1013.6 0.2
24/09:30pm 28.8 25.8 7.9 27 11.5 N 13 20 7 11 1012.8 1012.3 0.2
24/09:00pm 28.1 25.8 7.4 27 11.2 N 9 15 5 8 1013.0 1012.5 0.2
24/08:30pm 28.3 26.0 7.5 27 11.3 N 9 13 5 7 1012.9 1012.4 0.2
24/08:00pm 28.5 26.7 7.1 26 11.6 NNW 6 7 3 4 1012.8 1012.3 0.2
24/07:30pm 29.8 27.0 7.1 24 12.3 N 11 15 6 8 1012.8 1012.3 0.2
24/07:00pm 30.9 26.9 6.7 22 13.1 N 17 28 9 15 1012.7 1012.2 0.2
24/06:30pm 31.6 28.0 6.6 21 13.6 N 15 22 8 12 1012.7 1012.2 0.2
24/06:00pm 32.4 29.3 7.3 21 13.9 N 13 22 7 12 1012.7 1012.2 0.2
24/05:30pm 32.8 28.7 6.2 19 14.5 NNW 17 28 9 15 1012.8 1012.3 0.2
24/05:00pm 33.9 29.4 7.0 19 14.9 NW 20 30 11 16 1013.2 1012.7 0.2
24/04:30pm 33.2 28.4 5.7 18 14.9 NNW 20 32 11 17 1013.3 1012.8 0.2
24/04:00pm 33.3 28.7 6.6 19 14.7 NNW 20 33 11 18 1013.8 1013.3 0.2
24/03:30pm 33.7 28.6 6.1 18 15.1 NW 22 35 12 19 1014.4 1013.9 0.2
24/03:00pm 34.1 29.7 7.2 19 15.0 WNW 20 33 11 18 1015.0 1014.5 0.2
24/02:30pm 33.4 29.2 7.4 20 14.5 NW 19 28 10 15 1015.5 1015.1 0.2
24/02:00pm 32.0 30.0 10.1 26 12.6 NE 11 20 6 11 1016.0 1015.6 0.2
24/01:30pm 31.2 29.9 10.0 27 12.2 NNE 7 15 4 8 1016.8 1016.3 0.2
24/01:00pm 29.9 28.5 10.9 31 11.0 S 9 15 5 8 1017.5 1017.0 0.2
24/12:30pm 28.5 27.3 10.2 32 10.4 NNW 7 13 4 7 1018.2 1017.7 0.2
24/12:00pm 26.5 25.5 12.2 41 8.3 NE 9 17 5 9 1018.9 1018.4 0.2
24/11:30am 24.6 24.0 13.5 50 6.5 N 9 17 5 9 1019.6 1019.2 0.2
24/11:00am 22.7 22.1 13.5 56 5.4 WNW 9 13 5 7 1020.2 1019.8 0.2
24/10:30am 20.1 16.7 13.8 67 3.7 ENE 24 33 13 18 1019.0 1018.5 0.0
24/10:26am 20.6 17.4 13.1 62 4.3 ENE 22 33 12 18 1019.5 1019.1 0.0
24/10:00am 23.2 20.4 11.3 47 6.7 SSW 17 20 9 11 1021.8 1021.3 0.0
24/09:30am 23.6 23.0 11.6 47 6.8 ENE 6 15 3 8 1020.3 1019.9 0.0
24/09:00am 21.6 19.6 11.6 53 5.6 NNW 13 20 7 11 1020.2 1019.8 0.0
24/08:30am 19.7 18.5 11.7 60 4.5 N 9 15 5 8 1020.6 1020.2 0.0
24/08:00am 17.7 17.2 11.9 69 3.2 NNW 6 7 3 4 1021.0 1020.6 0.0
24/07:30am 15.7 15.0 11.5 76 2.3 N 6 9 3 5 1020.9 1020.5 0.0
24/07:00am 13.8 14.0 10.6 81 1.7 CALM 0 0 0 0 1020.5 1020.1 0.0
24/06:30am 13.7 12.2 10.5 81 1.7 NNE 9 19 5 10 1020.9 1020.5 0.0
24/06:00am 12.6 12.3 10.0 84 1.3 NW 2 9 1 5 1021.6 1021.1 0.0
24/05:30am 11.8 10.4 9.7 87 1.1 W 7 9 4 5 1020.7 1020.3 0.0
24/05:00am 11.4 10.9 9.3 87 1.1 W 2 9 1 5 1019.8 1019.4 0.0
24/04:30am 11.5 11.4 9.4 87 1.1 CALM 0 0 0 0 1019.4 1019.0 0.0
24/04:00am 11.8 11.9 10.0 89 0.9 CALM 0 0 0 0 1019.0 1018.5 0.0
24/03:30am 12.0 12.0 9.7 86 1.2 CALM 0 0 0 0 1018.7 1018.2 0.0
24/03:00am 12.3 11.1 9.5 83 1.4 W 6 9 3 5 1018.8 1018.3 0.0
24/02:30am 12.8 12.1 10.0 83 1.5 NW 4 7 2 4 1018.7 1018.2 0.0
24/02:00am 12.9 11.5 9.5 80 1.7 WNW 7 7 4 4 1018.9 1018.4 0.0
24/01:30am 14.2 14.3 10.2 77 2.1 CALM 0 0 0 0 1019.3 1018.9 0.0
24/01:00am 14.4 14.2 10.6 78 2.0 WNW 2 7 1 4 1019.6 1019.2 0.0
24/12:30am 14.9 14.4 10.7 76 2.2 N 4 11 2 6 1019.8 1019.4 0.0
24/12:00am 16.4 16.7 10.9 70 3.0 CALM 0 0 0 0 1019.7 1019.3 0.0
 
Date/Time
EDT
Temp
°C
App
Temp
°C
Dew
Point
Rel
Hum
%
Delta-T
°C
Wind Press
QNH
hPa
Press
MSL
hPa
Rain
since 9 am
mm
Dir
 
Spd
km/h
Gust
km/h
Spd
kts
Gust
kts
23/11:30pm 17.1 17.4 10.9 67 3.4 CALM 0 2 0 1 1019.7 1019.3 0.0
23/11:00pm 18.3 18.2 10.9 62 4.0 SSE 2 7 1 4 1019.7 1019.3 0.0
23/10:30pm 19.0 16.9 11.1 60 4.3 SSW 13 15 7 8 1019.5 1019.1 0.0
23/10:00pm 18.4 16.6 11.0 62 4.0 SSW 11 17 6 9 1019.3 1018.9 0.0
23/09:30pm 18.6 17.0 10.2 58 4.5 SSE 9 13 5 7 1018.9 1018.4 0.0
23/09:00pm 20.1 19.3 9.7 51 5.6 NE 4 13 2 7 1018.4 1017.9 0.0
23/08:30pm 21.8 19.1 10.3 48 6.3 WNW 15 22 8 12 1018.1 1017.6 0.0
23/08:00pm 22.2 19.9 10.4 47 6.5 W 13 15 7 8 1018.0 1017.5 0.0
23/07:30pm 22.0 21.1 10.8 49 6.2 NE 6 9 3 5 1017.5 1017.0 0.0
23/07:00pm 22.4 18.4 10.5 47 6.6 ESE 22 32 12 17 1017.2 1016.7 0.0
23/06:30pm 24.8 17.4 8.3 35 8.9 SE 37 48 20 26 1016.1 1015.7 0.0
23/06:00pm 26.3 20.9 7.8 31 10.0 SE 26 37 14 20 1015.6 1015.2 0.0
23/05:30pm 30.0 26.7 2.3 17 13.9 WSW 9 20 5 11 1014.8 1014.3 0.0
23/05:00pm 30.8 26.7 6.0 21 13.3 W 17 22 9 12 1014.5 1014.0 0.0
23/04:30pm 30.9 26.6 5.3 20 13.6 WSW 17 22 9 12 1014.5 1014.0 0.0
23/04:00pm 32.7 29.9 5.3 18 14.7 SW 9 15 5 8 1014.5 1014.0 0.0
23/03:30pm 32.2 28.0 5.7 19 14.3 SSE 17 26 9 14 1014.5 1014.0 0.0
23/03:00pm 32.7 29.3 6.1 19 14.4 S 13 22 7 12 1014.7 1014.2 0.0
23/02:30pm 32.0 28.8 7.0 21 13.7 S 13 20 7 11 1015.4 1015.0 0.0
23/02:00pm 32.4 29.5 8.0 22 13.6 WSW 13 22 7 12 1016.0 1015.6 0.0
23/01:30pm 32.0 28.2 7.6 22 13.5 WSW 17 24 9 13 1016.7 1016.2 0.0
23/01:00pm 31.0 26.8 7.5 23 12.9 WSW 19 26 10 14 1017.0 1016.5 0.0
23/12:30pm 32.0 27.8 8.3 23 13.3 W 20 33 11 18 1017.4 1016.9 0.0
23/12:00pm 31.0 26.8 8.1 24 12.7 W 20 33 11 18 1017.8 1017.3 0.0
23/11:30am 30.6 27.9 8.9 26 12.2 WSW 13 22 7 12 1018.3 1017.8 0.0
23/11:00am 29.6 27.0 9.2 28 11.4 WSW 13 20 7 11 1018.5 1018.0 0.0
23/10:30am 28.5 26.3 9.2 30 10.8 WNW 11 19 6 10 1018.8 1018.3 0.0
23/10:00am 26.7 26.4 10.0 35 9.4 ESE 2 7 1 4 1019.0 1018.5 0.0
23/09:30am 25.1 24.9 10.6 40 8.2 ESE 2 6 1 3 1019.0 1018.5 0.0
23/09:00am 21.7 21.4 10.2 48 6.3 SE 2 7 1 4 1019.2 1018.8 0.0
23/08:30am 19.8 19.6 10.5 55 5.1 SSE 2 6 1 3 1019.2 1018.8 0.0
23/08:00am 16.7 15.7 10.3 66 3.4 SW 6 7 3 4 1019.1 1018.7 0.0
23/07:30am 13.7 13.7 9.9 78 2.0 CALM 0 0 0 0 1019.1 1018.7 0.0
23/07:00am 11.3 11.2 9.4 88 1.0 CALM 0 0 0 0 1019.0 1018.5 0.0
23/06:30am 10.5 9.6 9.1 91 0.7 N 4 6 2 3 1018.9 1018.4 0.0
23/06:00am 10.1 9.8 8.5 90 0.8 CALM 0 0 0 0 1018.7 1018.2 0.0
23/05:30am 10.3 9.6 8.6 89 0.8 N 2 6 1 3 1018.6 1018.1 0.0
23/05:00am 10.5 9.4 8.6 88 0.9 W 4 11 2 6 1018.4 1017.9 0.0
23/04:30am 10.8 10.5 8.7 87 1.0 CALM 0 0 0 0 1018.3 1017.8 0.0
23/04:00am 10.6 9.9 8.4 86 1.1 WNW 2 7 1 4 1018.3 1017.8 0.0
23/03:30am 10.7 10.3 8.3 85 1.2 CALM 0 0 0 0 1018.7 1018.2 0.0
23/03:00am 10.7 9.2 8.6 87 1.0 WNW 6 7 3 4 1018.8 1018.3 0.0
23/02:30am 11.4 11.2 9.0 85 1.2 CALM 0 6 0 3 1018.9 1018.4 0.0
23/02:00am 11.4 9.9 8.6 83 1.4 W 6 9 3 5 1019.1 1018.7 0.0
23/01:30am 11.4 10.3 8.4 82 1.5 WNW 4 6 2 3 1019.1 1018.7 0.0
23/01:00am 13.0 12.1 9.3 78 1.9 WNW 4 9 2 5 1019.3 1018.9 0.0
23/12:30am 12.8 12.7 9.3 79 1.8 CALM 0 0 0 0 1019.5 1019.1 0.0
23/12:00am 13.0 12.7 8.5 74 2.3 CALM 0 0 0 0 1019.6 1019.2 0.0
 
Date/Time
EDT
Temp
°C
App
Temp
°C
Dew
Point
Rel
Hum
%
Delta-T
°C
Wind Press
QNH
hPa
Press
MSL
hPa
Rain
since 9 am
mm
Dir
 
Spd
km/h
Gust
km/h
Spd
kts
Gust
kts
22/11:30pm 14.1 12.8 9.1 72 2.6 WNW 6 9 3 5 1019.6 1019.2 0.0
22/11:00pm 14.0 12.4 8.6 70 2.7 W 7 9 4 5 1019.6 1019.2 0.0
22/10:30pm 15.4 15.2 8.9 65 3.4 CALM 0 0 0 0 1019.7 1019.3 0.0
22/10:00pm 15.9 15.6 8.6 62 3.8 CALM 0 0 0 0 1019.8 1019.4 0.0
22/09:30pm 16.5 16.3 9.0 61 3.9 CALM 0 6 0 3 1019.6 1019.2 0.0
22/09:00pm 17.2 16.6 8.9 58 4.3 N 2 7 1 4 1019.5 1019.1 0.0
22/08:30pm 18.6 18.3 8.6 52 5.2 CALM 0 0 0 0 1019.2 1018.8 0.0
22/08:00pm 19.3 18.1 8.0 48 5.9 WSW 4 7 2 4 1019.1 1018.7 0.0
22/07:30pm 20.9 19.0 7.5 42 7.0 SSE 7 9 4 5 1018.9 1018.4 0.0
22/07:00pm 23.1 20.8 7.6 37 8.2 SE 9 11 5 6 1018.9 1018.4 0.0
22/06:30pm 25.4 22.7 7.5 32 9.6 ESE 11 17 6 9 1019.2 1018.8 0.0
22/06:00pm 26.3 24.2 8.3 32 9.8 SSE 9 15 5 8 1019.2 1018.8 0.0
22/05:30pm 26.4 23.8 7.9 31 10.0 ESE 11 17 6 9 1019.4 1019.0 0.0

Other Formats:

Comma delimited format used in spreadsheet applications
http://www.bom.gov.au/fwo/IDN60801/IDN60801.95758.axf

JavaScript Object Notation format (JSON) in row-major order
http://www.bom.gov.au/fwo/IDN60801/IDN60801.95758.json